createdAt,value
2016-11-15T00:00:18.101Z,0
2016-11-15T00:00:50.496Z,0
2016-11-15T00:01:22.829Z,0
2016-11-15T00:01:55.197Z,0
2016-11-15T00:02:27.524Z,0
2016-11-15T00:02:59.826Z,0
2016-11-15T00:03:32.161Z,0
2016-11-15T00:04:04.519Z,0
2016-11-15T00:04:36.847Z,0
2016-11-15T00:05:09.170Z,0
2016-11-15T00:05:41.472Z,0
2016-11-15T00:06:13.778Z,0
2016-11-15T00:06:46.107Z,0
2016-11-15T00:07:18.436Z,0
2016-11-15T00:07:50.767Z,0
2016-11-15T00:08:23.091Z,0
2016-11-15T00:08:55.409Z,0
2016-11-15T00:09:27.730Z,0
2016-11-15T00:10:00.047Z,0
2016-11-15T00:10:32.380Z,0
2016-11-15T00:11:04.716Z,0
2016-11-15T00:11:37.064Z,0
2016-11-15T00:12:09.394Z,0
2016-11-15T00:12:41.709Z,0
2016-11-15T00:13:14.036Z,0
2016-11-15T00:13:46.388Z,0
2016-11-15T00:14:18.702Z,0
2016-11-15T00:14:51.024Z,0
2016-11-15T00:15:23.343Z,0
2016-11-15T00:15:55.706Z,0
2016-11-15T00:16:28.040Z,0
2016-11-15T00:17:00.366Z,0
2016-11-15T00:17:32.704Z,0
2016-11-15T00:18:05.038Z,0
2016-11-15T00:18:37.359Z,0
2016-11-15T00:19:09.684Z,0
2016-11-15T00:19:42.015Z,0
2016-11-15T00:20:14.331Z,0
2016-11-15T00:20:46.649Z,0
2016-11-15T00:21:19.016Z,0
2016-11-15T00:21:51.341Z,0
2016-11-15T00:22:23.670Z,0
2016-11-15T00:22:55.993Z,0
2016-11-15T00:23:28.324Z,0
2016-11-15T00:24:00.696Z,0
2016-11-15T00:24:33.002Z,0
2016-11-15T00:25:05.316Z,0
2016-11-15T00:25:37.652Z,0
2016-11-15T00:26:09.959Z,0
2016-11-15T00:26:42.283Z,0
2016-11-15T00:27:14.598Z,0
2016-11-15T00:27:46.911Z,0
2016-11-15T00:28:19.234Z,0
2016-11-15T00:28:51.560Z,0
2016-11-15T00:29:23.896Z,0
2016-11-15T00:29:56.213Z,0
2016-11-15T00:30:28.569Z,0
2016-11-15T00:31:00.891Z,0
2016-11-15T00:31:33.212Z,0
2016-11-15T00:32:05.542Z,0
2016-11-15T00:32:37.852Z,0
2016-11-15T00:33:10.201Z,0
2016-11-15T00:33:42.530Z,0
2016-11-15T00:34:14.856Z,0
2016-11-15T00:34:47.165Z,0
2016-11-15T00:35:19.494Z,0
2016-11-15T00:35:51.801Z,0
2016-11-15T00:36:24.125Z,0
2016-11-15T00:36:56.485Z,0
2016-11-15T00:37:28.810Z,0
2016-11-15T00:38:01.148Z,0
2016-11-15T00:38:33.483Z,0
2016-11-15T00:39:05.797Z,0
2016-11-15T00:39:38.124Z,0
2016-11-15T00:40:10.449Z,0
2016-11-15T00:40:42.806Z,0
2016-11-15T00:41:15.118Z,0
2016-11-15T00:41:47.453Z,0
2016-11-15T00:42:19.770Z,0
2016-11-15T00:42:52.101Z,0
2016-11-15T00:43:24.424Z,0
2016-11-15T00:43:56.746Z,0
2016-11-15T00:44:29.077Z,0
2016-11-15T00:45:01.416Z,0
2016-11-15T00:45:33.751Z,0
2016-11-15T00:46:06.115Z,0
2016-11-15T00:46:38.434Z,0
2016-11-15T00:47:10.759Z,0
2016-11-15T00:47:43.104Z,0
2016-11-15T00:48:15.431Z,0
2016-11-15T00:48:47.769Z,0
2016-11-15T00:49:20.092Z,0
2016-11-15T00:49:52.427Z,0
2016-11-15T00:50:24.760Z,0
2016-11-15T00:50:57.068Z,0
2016-11-15T00:51:29.392Z,0
2016-11-15T00:52:01.736Z,0
2016-11-15T00:52:34.059Z,0
2016-11-15T00:53:06.423Z,0
2016-11-15T00:53:39.721Z,0
2016-11-15T00:54:12.041Z,0
2016-11-15T00:54:44.368Z,0
2016-11-15T00:55:16.683Z,0
2016-11-15T00:55:48.995Z,0
2016-11-15T00:56:21.318Z,0
2016-11-15T00:56:53.655Z,0
2016-11-15T00:57:25.986Z,0
2016-11-15T00:57:58.329Z,0
2016-11-15T00:58:30.651Z,0
2016-11-15T00:59:02.956Z,0
2016-11-15T00:59:35.273Z,0
2016-11-15T01:00:07.605Z,0
2016-11-15T01:00:39.911Z,0
2016-11-15T01:01:12.229Z,0
2016-11-15T01:01:44.554Z,0
2016-11-15T01:02:16.877Z,0
2016-11-15T01:02:49.214Z,0
2016-11-15T01:03:21.550Z,0
2016-11-15T01:03:53.918Z,0
2016-11-15T01:04:26.248Z,0
2016-11-15T01:04:58.571Z,0
2016-11-15T01:05:30.893Z,0
2016-11-15T01:06:03.221Z,0
2016-11-15T01:06:36.184Z,0
2016-11-15T01:07:08.517Z,0
2016-11-15T01:07:40.848Z,0
2016-11-15T01:08:13.182Z,0
2016-11-15T01:08:45.499Z,0
2016-11-15T01:09:17.822Z,0
2016-11-15T01:09:50.146Z,0
2016-11-15T01:10:22.476Z,0
2016-11-15T01:10:54.815Z,0
2016-11-15T01:11:27.146Z,0
2016-11-15T01:11:59.478Z,0
2016-11-15T01:12:31.810Z,0
2016-11-15T01:13:04.180Z,0
2016-11-15T01:13:36.503Z,0
2016-11-15T01:14:08.835Z,0
2016-11-15T01:14:41.165Z,0
2016-11-15T01:15:13.533Z,0
2016-11-15T01:15:45.869Z,0
2016-11-15T01:16:18.191Z,0
2016-11-15T01:16:50.530Z,0
2016-11-15T01:17:22.863Z,0
2016-11-15T01:17:55.225Z,0
2016-11-15T01:18:27.561Z,0
2016-11-15T01:18:59.886Z,0
2016-11-15T01:19:32.198Z,0
2016-11-15T01:20:04.535Z,0
2016-11-15T01:20:36.896Z,0
2016-11-15T01:21:09.208Z,0
2016-11-15T01:21:41.533Z,0
2016-11-15T01:22:13.868Z,0
2016-11-15T01:22:46.201Z,0
2016-11-15T01:23:18.527Z,0
2016-11-15T01:23:50.854Z,0
2016-11-15T01:24:23.206Z,0
2016-11-15T01:24:55.528Z,0
2016-11-15T01:25:27.854Z,0
2016-11-15T01:26:00.201Z,0
2016-11-15T01:26:32.525Z,0
2016-11-15T01:27:04.843Z,0
2016-11-15T01:27:37.155Z,0
2016-11-15T01:28:09.512Z,0
2016-11-15T01:28:41.830Z,0
2016-11-15T01:29:14.164Z,0
2016-11-15T01:29:46.487Z,0
2016-11-15T01:30:18.809Z,0
2016-11-15T01:30:51.149Z,0
2016-11-15T01:31:23.471Z,0
2016-11-15T01:31:55.802Z,0
2016-11-15T01:32:28.151Z,0
2016-11-15T01:33:00.473Z,0
2016-11-15T01:33:32.803Z,0
2016-11-15T01:34:05.141Z,0
2016-11-15T01:34:37.471Z,0
2016-11-15T01:35:09.784Z,0
2016-11-15T01:35:42.112Z,0
2016-11-15T01:36:14.442Z,0
2016-11-15T01:36:46.809Z,0
2016-11-15T01:37:19.148Z,0
2016-11-15T01:37:51.484Z,0
2016-11-15T01:38:23.807Z,0
2016-11-15T01:38:56.133Z,0
2016-11-15T01:39:28.458Z,0
2016-11-15T01:40:00.789Z,0
2016-11-15T01:40:33.131Z,0
2016-11-15T01:41:05.461Z,0
2016-11-15T01:41:37.793Z,0
2016-11-15T01:42:10.125Z,0
2016-11-15T01:42:42.481Z,0
2016-11-15T01:43:14.822Z,0
2016-11-15T01:43:47.143Z,0
2016-11-15T01:44:19.462Z,0
2016-11-15T01:44:51.780Z,0
2016-11-15T01:45:24.098Z,0
2016-11-15T01:45:56.438Z,0
2016-11-15T01:46:28.758Z,0
2016-11-15T01:47:01.079Z,0
2016-11-15T01:47:33.400Z,0
2016-11-15T01:48:05.721Z,0
2016-11-15T01:48:38.049Z,0
2016-11-15T01:49:10.371Z,0
2016-11-15T01:49:42.716Z,0
2016-11-15T01:50:15.039Z,0
2016-11-15T01:50:47.380Z,0
2016-11-15T01:51:19.719Z,0
2016-11-15T01:51:52.040Z,0
2016-11-15T01:52:24.352Z,0
2016-11-15T01:52:56.681Z,0
2016-11-15T01:53:29.014Z,0
2016-11-15T01:54:01.353Z,0
2016-11-15T01:54:33.663Z,0
2016-11-15T01:55:05.984Z,0
2016-11-15T01:55:38.306Z,0
2016-11-15T01:56:10.633Z,0
2016-11-15T01:56:42.982Z,0
2016-11-15T01:57:15.308Z,0
2016-11-15T01:57:47.634Z,0
2016-11-15T01:58:19.969Z,0
2016-11-15T01:58:52.294Z,0
2016-11-15T01:59:24.613Z,0
2016-11-15T01:59:56.942Z,0
2016-11-15T02:00:29.262Z,0
2016-11-15T02:01:01.618Z,0
2016-11-15T02:01:33.931Z,0
2016-11-15T02:02:06.254Z,0
2016-11-15T02:02:38.572Z,0
2016-11-15T02:03:10.891Z,0
2016-11-15T02:03:43.241Z,0
2016-11-15T02:04:15.576Z,0
2016-11-15T02:04:47.896Z,0
2016-11-15T02:05:20.220Z,0
2016-11-15T02:05:52.533Z,0
2016-11-15T02:06:24.857Z,0
2016-11-15T02:06:57.181Z,0
2016-11-15T02:07:29.525Z,0
2016-11-15T02:08:01.846Z,0
2016-11-15T02:08:34.185Z,0
2016-11-15T02:09:06.529Z,0
2016-11-15T02:09:38.858Z,0
2016-11-15T02:10:11.190Z,0
2016-11-15T02:10:43.524Z,0
2016-11-15T02:11:15.848Z,0
2016-11-15T02:11:48.157Z,0
2016-11-15T02:12:20.488Z,0
2016-11-15T02:12:52.820Z,0
2016-11-15T02:13:25.160Z,0
2016-11-15T02:13:57.516Z,0
2016-11-15T02:14:29.835Z,0
2016-11-15T02:15:02.155Z,0
2016-11-15T02:15:34.484Z,0
2016-11-15T02:16:06.823Z,0
2016-11-15T02:16:39.155Z,0
2016-11-15T02:17:11.513Z,0
2016-11-15T02:17:43.842Z,0
2016-11-15T02:18:16.166Z,0
2016-11-15T02:18:48.493Z,0
2016-11-15T02:19:20.862Z,0
2016-11-15T02:19:53.178Z,0
2016-11-15T02:20:25.507Z,0
2016-11-15T02:20:57.850Z,0
2016-11-15T02:21:30.154Z,0
2016-11-15T02:22:02.479Z,0
2016-11-15T02:22:34.816Z,0
2016-11-15T02:23:07.147Z,0
2016-11-15T02:23:39.491Z,0
2016-11-15T02:24:11.831Z,0
2016-11-15T02:24:44.158Z,0
2016-11-15T02:25:16.469Z,0
2016-11-15T02:25:48.808Z,0
2016-11-15T02:26:21.134Z,0
2016-11-15T02:26:53.508Z,0
2016-11-15T02:27:25.849Z,0
2016-11-15T02:27:58.191Z,0
2016-11-15T02:28:30.517Z,0
2016-11-15T02:29:02.846Z,0
2016-11-15T02:29:35.161Z,0
2016-11-15T02:30:07.479Z,0
2016-11-15T02:30:39.814Z,0
2016-11-15T02:31:12.146Z,0
2016-11-15T02:31:44.465Z,0
2016-11-15T02:32:16.800Z,0
2016-11-15T02:32:49.116Z,0
2016-11-15T02:33:21.469Z,0
2016-11-15T02:33:53.802Z,0
2016-11-15T02:34:26.155Z,0
2016-11-15T02:34:58.485Z,0
2016-11-15T02:35:30.842Z,0
2016-11-15T02:36:03.208Z,0
2016-11-15T02:36:35.537Z,0
2016-11-15T02:37:07.854Z,0
2016-11-15T02:37:40.203Z,0
2016-11-15T02:38:12.520Z,0
2016-11-15T02:38:44.846Z,0
2016-11-15T02:39:17.184Z,0
2016-11-15T02:39:49.508Z,0
2016-11-15T02:40:21.834Z,0
2016-11-15T02:40:54.159Z,0
2016-11-15T02:41:26.491Z,0
2016-11-15T02:41:58.837Z,0
2016-11-15T02:42:31.164Z,0
2016-11-15T02:43:03.494Z,0
2016-11-15T02:43:35.817Z,0
2016-11-15T02:44:08.146Z,0
2016-11-15T02:44:40.480Z,0
2016-11-15T02:45:12.807Z,0
2016-11-15T02:45:45.136Z,0
2016-11-15T02:46:17.495Z,0
2016-11-15T02:46:49.829Z,0
2016-11-15T02:47:22.165Z,0
2016-11-15T02:47:54.494Z,0
2016-11-15T02:48:26.819Z,0
2016-11-15T02:48:59.151Z,0
2016-11-15T02:49:31.472Z,0
2016-11-15T02:50:03.812Z,0
2016-11-15T02:50:36.133Z,0
2016-11-15T02:51:08.453Z,0
2016-11-15T02:51:40.772Z,0
2016-11-15T02:52:13.104Z,0
2016-11-15T02:52:45.429Z,0
2016-11-15T02:53:17.753Z,0
2016-11-15T02:53:50.095Z,0
2016-11-15T02:54:22.467Z,0
2016-11-15T02:54:54.797Z,0
2016-11-15T02:55:27.122Z,0
2016-11-15T02:55:59.446Z,0
2016-11-15T02:56:31.798Z,0
2016-11-15T02:57:04.123Z,0
2016-11-15T02:57:36.453Z,0
2016-11-15T02:58:08.776Z,0
2016-11-15T02:58:41.089Z,0
2016-11-15T02:59:13.425Z,0
2016-11-15T02:59:45.751Z,0
2016-11-15T03:00:18.076Z,0
2016-11-15T03:00:50.408Z,0
2016-11-15T03:01:22.738Z,0
2016-11-15T03:01:55.071Z,0
2016-11-15T03:02:27.397Z,0
2016-11-15T03:02:59.718Z,0
2016-11-15T03:03:32.039Z,0
2016-11-15T03:04:04.356Z,0
2016-11-15T03:04:36.678Z,0
2016-11-15T03:05:08.999Z,0
2016-11-15T03:05:41.319Z,0
2016-11-15T03:06:13.651Z,0
2016-11-15T03:06:45.984Z,0
2016-11-15T03:07:18.315Z,0
2016-11-15T03:07:50.671Z,0
2016-11-15T03:08:22.986Z,0
2016-11-15T03:08:55.302Z,0
2016-11-15T03:09:27.636Z,0
2016-11-15T03:09:59.974Z,0
2016-11-15T03:10:32.343Z,0
2016-11-15T03:11:04.661Z,0
2016-11-15T03:11:36.983Z,0
2016-11-15T03:12:09.324Z,0
2016-11-15T03:12:41.646Z,0
2016-11-15T03:13:13.961Z,0
2016-11-15T03:13:46.282Z,0
2016-11-15T03:14:18.615Z,0
2016-11-15T03:14:50.950Z,0
2016-11-15T03:15:23.277Z,0
2016-11-15T03:15:55.599Z,0
2016-11-15T03:16:27.957Z,0
2016-11-15T03:17:00.326Z,0
2016-11-15T03:17:32.655Z,0
2016-11-15T03:18:04.988Z,0
2016-11-15T03:18:37.304Z,0
2016-11-15T03:19:09.621Z,0
2016-11-15T03:19:41.942Z,0
2016-11-15T03:20:14.295Z,0
2016-11-15T03:20:46.628Z,0
2016-11-15T03:21:18.955Z,0
2016-11-15T03:21:51.282Z,0
2016-11-15T03:22:23.612Z,0
2016-11-15T03:22:55.962Z,0
2016-11-15T03:23:28.291Z,0
2016-11-15T03:24:00.633Z,0
2016-11-15T03:24:32.970Z,0
2016-11-15T03:25:05.288Z,0
2016-11-15T03:25:37.613Z,0
2016-11-15T03:26:09.944Z,0
2016-11-15T03:26:42.265Z,0
2016-11-15T03:27:14.577Z,0
2016-11-15T03:27:46.896Z,0
2016-11-15T03:28:19.258Z,0
2016-11-15T03:28:51.580Z,0
2016-11-15T03:29:23.904Z,0
2016-11-15T03:29:56.219Z,0
2016-11-15T03:30:28.549Z,0
2016-11-15T03:31:00.887Z,0
2016-11-15T03:31:33.220Z,0
2016-11-15T03:32:05.544Z,0
2016-11-15T03:32:37.895Z,0
2016-11-15T03:33:10.204Z,0
2016-11-15T03:33:42.520Z,0
2016-11-15T03:34:14.855Z,0
2016-11-15T03:34:47.189Z,0
2016-11-15T03:35:19.509Z,0
2016-11-15T03:35:51.847Z,0
2016-11-15T03:36:24.175Z,0
2016-11-15T03:36:56.512Z,0
2016-11-15T03:37:28.828Z,0
2016-11-15T03:38:01.157Z,0
2016-11-15T03:38:33.495Z,0
2016-11-15T03:39:05.834Z,0
2016-11-15T03:39:38.155Z,0
2016-11-15T03:40:10.475Z,0
2016-11-15T03:40:42.807Z,0
2016-11-15T03:41:15.124Z,0
2016-11-15T03:41:47.450Z,0
2016-11-15T03:42:19.759Z,0
2016-11-15T03:42:52.087Z,0
2016-11-15T03:43:24.396Z,0
2016-11-15T03:43:56.721Z,0
2016-11-15T03:44:29.057Z,0
2016-11-15T03:45:01.391Z,0
2016-11-15T03:45:33.726Z,0
2016-11-15T03:46:06.076Z,0
2016-11-15T03:46:38.419Z,0
2016-11-15T03:47:10.772Z,0
2016-11-15T03:47:43.096Z,0
2016-11-15T03:48:15.426Z,0
2016-11-15T03:48:47.748Z,0
2016-11-15T03:49:20.077Z,0
2016-11-15T03:49:52.400Z,0
2016-11-15T03:50:24.734Z,0
2016-11-15T03:50:57.061Z,0
2016-11-15T03:51:29.401Z,0
2016-11-15T03:52:01.739Z,0
2016-11-15T03:52:34.098Z,0
2016-11-15T03:53:06.427Z,0
2016-11-15T03:53:38.762Z,0
2016-11-15T03:54:11.082Z,0
2016-11-15T03:54:43.402Z,0
2016-11-15T03:55:15.718Z,0
2016-11-15T03:55:48.036Z,0
2016-11-15T03:56:20.363Z,0
2016-11-15T03:56:52.686Z,0
2016-11-15T03:57:25.015Z,0
2016-11-15T03:57:57.353Z,0
2016-11-15T03:58:29.703Z,0
2016-11-15T03:59:02.035Z,0
2016-11-15T03:59:34.365Z,0
2016-11-15T04:00:06.672Z,0
2016-11-15T04:00:39.006Z,0
2016-11-15T04:01:11.328Z,0
2016-11-15T04:01:43.655Z,0
2016-11-15T04:02:15.991Z,0
2016-11-15T04:02:48.324Z,0
2016-11-15T04:03:20.658Z,0
2016-11-15T04:03:52.975Z,0
2016-11-15T04:04:25.298Z,0
2016-11-15T04:04:57.629Z,0
2016-11-15T04:05:29.962Z,0
2016-11-15T04:06:02.275Z,0
2016-11-15T04:06:34.611Z,0
2016-11-15T04:07:06.944Z,0
2016-11-15T04:07:39.265Z,0
2016-11-15T04:08:11.588Z,0
2016-11-15T04:08:43.919Z,0
2016-11-15T04:09:16.257Z,0
2016-11-15T04:09:48.585Z,0
2016-11-15T04:10:20.909Z,0
2016-11-15T04:10:53.259Z,0
2016-11-15T04:11:25.589Z,0
2016-11-15T04:11:57.932Z,0
2016-11-15T04:12:30.268Z,0
2016-11-15T04:13:02.631Z,0
2016-11-15T04:13:34.976Z,0
2016-11-15T04:14:07.299Z,0
2016-11-15T04:14:39.617Z,0
2016-11-15T04:15:11.947Z,0
2016-11-15T04:15:44.275Z,0
2016-11-15T04:16:16.636Z,0
2016-11-15T04:16:48.960Z,0
2016-11-15T04:17:21.303Z,0
2016-11-15T04:17:53.620Z,0
2016-11-15T04:18:25.952Z,0
2016-11-15T04:18:58.288Z,0
2016-11-15T04:19:30.600Z,0
2016-11-15T04:20:02.928Z,0
2016-11-15T04:20:35.257Z,0
2016-11-15T04:21:07.578Z,0
2016-11-15T04:21:39.902Z,0
2016-11-15T04:22:12.214Z,0
2016-11-15T04:22:44.531Z,0
2016-11-15T04:23:16.857Z,0
2016-11-15T04:23:49.180Z,0
2016-11-15T04:24:21.510Z,0
2016-11-15T04:24:53.869Z,0
2016-11-15T04:25:26.177Z,0
2016-11-15T04:25:58.507Z,0
2016-11-15T04:26:30.829Z,0
2016-11-15T04:27:03.149Z,0
2016-11-15T04:27:35.475Z,0
2016-11-15T04:28:07.799Z,0
2016-11-15T04:28:40.162Z,0
2016-11-15T04:29:12.493Z,0
2016-11-15T04:29:44.825Z,0
2016-11-15T04:30:17.151Z,0
2016-11-15T04:30:49.481Z,0
2016-11-15T04:31:21.799Z,0
2016-11-15T04:31:54.127Z,0
2016-11-15T04:32:26.462Z,0
2016-11-15T04:32:58.829Z,0
2016-11-15T04:33:31.184Z,0
2016-11-15T04:34:03.503Z,0
2016-11-15T04:34:35.838Z,0
2016-11-15T04:35:08.158Z,0
2016-11-15T04:35:40.508Z,0
2016-11-15T04:36:12.838Z,0
2016-11-15T04:36:45.154Z,0
2016-11-15T04:37:17.493Z,0
2016-11-15T04:37:49.812Z,0
2016-11-15T04:38:22.135Z,0
2016-11-15T04:38:54.463Z,0
2016-11-15T04:39:26.817Z,0
2016-11-15T04:39:59.128Z,0
2016-11-15T04:40:31.447Z,0
2016-11-15T04:41:03.777Z,0
2016-11-15T04:41:36.102Z,0
2016-11-15T04:42:08.416Z,0
2016-11-15T04:42:40.727Z,0
2016-11-15T04:43:13.034Z,0
2016-11-15T04:43:45.350Z,0
2016-11-15T04:44:17.681Z,0
2016-11-15T04:44:50.016Z,0
2016-11-15T04:45:22.328Z,0
2016-11-15T04:45:54.658Z,0
2016-11-15T04:46:27.702Z,0
2016-11-15T04:47:00.021Z,0
2016-11-15T04:47:32.343Z,0
2016-11-15T04:48:04.676Z,0
2016-11-15T04:48:36.996Z,0
2016-11-15T04:49:09.325Z,0
2016-11-15T04:49:41.637Z,0
2016-11-15T04:50:13.941Z,0
2016-11-15T04:50:46.263Z,0
2016-11-15T04:51:18.591Z,0
2016-11-15T04:51:50.931Z,0
2016-11-15T04:52:23.257Z,0
2016-11-15T04:52:55.586Z,0
2016-11-15T04:53:27.931Z,0
2016-11-15T04:54:00.247Z,0
2016-11-15T04:54:32.578Z,0
2016-11-15T04:55:04.904Z,0
2016-11-15T04:55:37.242Z,0
2016-11-15T04:56:09.559Z,0
2016-11-15T04:56:41.887Z,0
2016-11-15T04:57:14.249Z,0
2016-11-15T04:57:46.572Z,0
2016-11-15T04:58:18.893Z,0
2016-11-15T04:58:51.225Z,0
2016-11-15T04:59:23.561Z,0
2016-11-15T04:59:55.884Z,0
2016-11-15T05:00:28.218Z,0
2016-11-15T05:01:00.546Z,0
2016-11-15T05:01:32.881Z,0
2016-11-15T05:02:05.209Z,0
2016-11-15T05:02:37.546Z,0
2016-11-15T05:03:09.956Z,0
2016-11-15T05:03:42.285Z,0
2016-11-15T05:04:14.610Z,0
2016-11-15T05:04:46.938Z,0
2016-11-15T05:05:19.269Z,0
2016-11-15T05:05:51.599Z,0
2016-11-15T05:06:23.934Z,0
2016-11-15T05:06:56.264Z,0
2016-11-15T05:07:28.584Z,0
2016-11-15T05:08:00.897Z,0
2016-11-15T05:08:33.223Z,0
2016-11-15T05:09:05.548Z,0
2016-11-15T05:09:37.870Z,0
2016-11-15T05:10:10.198Z,0
2016-11-15T05:10:42.534Z,0
2016-11-15T05:11:14.858Z,0
2016-11-15T05:11:47.162Z,0
2016-11-15T05:12:19.483Z,0
2016-11-15T05:12:51.806Z,0
2016-11-15T05:13:24.122Z,0
2016-11-15T05:13:56.445Z,0
2016-11-15T05:14:28.775Z,0
2016-11-15T05:15:01.108Z,0
2016-11-15T05:15:33.444Z,0
2016-11-15T05:16:05.773Z,0
2016-11-15T05:16:38.095Z,0
2016-11-15T05:17:10.411Z,0
2016-11-15T05:17:42.738Z,0
2016-11-15T05:18:15.075Z,0
2016-11-15T05:18:47.415Z,0
2016-11-15T05:19:19.754Z,0
2016-11-15T05:19:52.089Z,0
2016-11-15T05:20:24.425Z,0
2016-11-15T05:20:56.760Z,0
2016-11-15T05:21:29.079Z,0
2016-11-15T05:22:01.407Z,0
2016-11-15T05:22:33.738Z,0
2016-11-15T05:23:06.074Z,0
2016-11-15T05:23:38.379Z,0
2016-11-15T05:24:10.713Z,0
2016-11-15T05:24:43.025Z,0
2016-11-15T05:25:15.357Z,0
2016-11-15T05:25:47.691Z,0
2016-11-15T05:26:20.041Z,0
2016-11-15T05:26:52.391Z,0
2016-11-15T05:27:24.784Z,0
2016-11-15T05:27:57.128Z,0
2016-11-15T05:28:29.453Z,0
2016-11-15T05:29:01.772Z,0
2016-11-15T05:29:34.094Z,0
2016-11-15T05:30:06.422Z,0
2016-11-15T05:30:38.752Z,0
2016-11-15T05:31:11.086Z,0
2016-11-15T05:31:43.407Z,0
2016-11-15T05:32:15.750Z,0
2016-11-15T05:32:48.095Z,0
2016-11-15T05:33:20.424Z,0
2016-11-15T05:33:52.752Z,0
2016-11-15T05:34:25.110Z,0
2016-11-15T05:34:57.436Z,0
2016-11-15T05:35:29.757Z,0
2016-11-15T05:36:02.086Z,0
2016-11-15T05:36:34.415Z,0
2016-11-15T05:37:06.736Z,0
2016-11-15T05:37:39.055Z,0
2016-11-15T05:38:11.388Z,0
2016-11-15T05:38:43.724Z,0
2016-11-15T05:39:16.049Z,0
2016-11-15T05:39:48.375Z,0
2016-11-15T05:40:20.700Z,0
2016-11-15T05:40:53.030Z,0
2016-11-15T05:41:25.358Z,0
2016-11-15T05:41:57.671Z,0
2016-11-15T05:42:29.979Z,0
2016-11-15T05:43:02.305Z,0
2016-11-15T05:43:34.639Z,0
2016-11-15T05:44:06.980Z,0
2016-11-15T05:44:39.311Z,0
2016-11-15T05:45:11.620Z,0
2016-11-15T05:45:43.974Z,0
2016-11-15T05:46:16.326Z,0
2016-11-15T05:46:48.655Z,0
2016-11-15T05:47:20.980Z,0
2016-11-15T05:47:53.304Z,0
2016-11-15T05:48:25.630Z,0
2016-11-15T05:48:57.965Z,0
2016-11-15T05:49:30.292Z,0
2016-11-15T05:50:02.611Z,0
2016-11-15T05:50:34.923Z,0
2016-11-15T05:51:07.243Z,0
2016-11-15T05:51:39.575Z,0
2016-11-15T05:52:11.897Z,0
2016-11-15T05:52:44.210Z,0
2016-11-15T05:53:16.543Z,0
2016-11-15T05:53:48.871Z,0
2016-11-15T05:54:21.200Z,0
2016-11-15T05:54:54.186Z,0
2016-11-15T05:55:26.519Z,0
2016-11-15T05:55:58.853Z,0
2016-11-15T05:56:31.206Z,0
2016-11-15T05:57:03.537Z,0
2016-11-15T05:57:35.903Z,0
2016-11-15T05:58:08.214Z,0
2016-11-15T05:58:40.541Z,0
2016-11-15T05:59:12.871Z,0
2016-11-15T05:59:45.193Z,0
2016-11-15T06:00:17.512Z,0
2016-11-15T06:00:49.839Z,0
2016-11-15T06:01:22.156Z,0
2016-11-15T06:01:54.483Z,0
2016-11-15T06:02:26.814Z,0
2016-11-15T06:02:59.140Z,0
2016-11-15T06:03:31.474Z,0
2016-11-15T06:04:03.791Z,0
2016-11-15T06:04:36.117Z,0
2016-11-15T06:05:08.448Z,0
2016-11-15T06:05:40.753Z,0
2016-11-15T06:06:13.086Z,0
2016-11-15T06:06:45.411Z,0
2016-11-15T06:07:17.748Z,0
2016-11-15T06:07:50.075Z,0
2016-11-15T06:08:22.396Z,0
2016-11-15T06:08:54.756Z,0
2016-11-15T06:09:27.132Z,0
2016-11-15T06:09:59.499Z,0
2016-11-15T06:10:31.833Z,0
2016-11-15T06:11:04.158Z,0
2016-11-15T06:11:36.532Z,0
2016-11-15T06:12:08.861Z,0
2016-11-15T06:12:41.196Z,0
2016-11-15T06:13:13.511Z,0
2016-11-15T06:13:45.848Z,0
2016-11-15T06:14:18.174Z,0
2016-11-15T06:14:50.494Z,0
2016-11-15T06:15:22.825Z,0
2016-11-15T06:15:55.174Z,0
2016-11-15T06:16:27.566Z,0
2016-11-15T06:17:00.276Z,0
2016-11-15T06:17:32.624Z,0
2016-11-15T06:18:04.962Z,0
2016-11-15T06:18:37.306Z,0
2016-11-15T06:19:09.639Z,0
2016-11-15T06:19:41.967Z,0
2016-11-15T06:20:14.292Z,0
2016-11-15T06:20:46.626Z,0
2016-11-15T06:21:18.951Z,0
2016-11-15T06:21:51.270Z,0
2016-11-15T06:22:23.602Z,0
2016-11-15T06:22:56.061Z,0
2016-11-15T06:23:28.596Z,0
2016-11-15T06:24:01.774Z,0
2016-11-15T06:24:34.097Z,0
2016-11-15T06:25:06.427Z,0
2016-11-15T06:25:38.761Z,0
2016-11-15T06:26:11.084Z,0
2016-11-15T06:26:43.414Z,0
2016-11-15T06:27:15.767Z,0
2016-11-15T06:27:48.112Z,0
2016-11-15T06:28:20.473Z,0
2016-11-15T06:28:52.797Z,0
2016-11-15T06:29:25.131Z,0
2016-11-15T06:29:57.465Z,0
2016-11-15T06:30:29.920Z,0
2016-11-15T06:31:02.246Z,0
2016-11-15T06:31:34.575Z,4
2016-11-15T06:32:06.931Z,4
2016-11-15T06:32:39.268Z,4
2016-11-15T06:33:11.603Z,4
2016-11-15T06:33:43.936Z,4
2016-11-15T06:34:16.268Z,0
2016-11-15T06:34:52.257Z,4
2016-11-15T06:35:25.433Z,4
2016-11-15T06:35:58.300Z,4
2016-11-15T06:36:30.917Z,4
2016-11-15T06:37:04.345Z,4
2016-11-15T06:37:36.940Z,4
2016-11-15T06:38:12.282Z,4
2016-11-15T06:38:45.471Z,4
2016-11-15T06:39:18.903Z,4
2016-11-15T06:39:53.875Z,8
2016-11-15T06:40:27.367Z,8
2016-11-15T06:41:00.545Z,4
2016-11-15T06:41:40.024Z,8
2016-11-15T06:42:12.608Z,8
2016-11-15T06:42:44.997Z,8
2016-11-15T06:43:17.320Z,8
2016-11-15T06:43:49.659Z,8
2016-11-15T06:44:21.992Z,8
2016-11-15T06:44:54.318Z,8
2016-11-15T06:45:26.651Z,8
2016-11-15T06:45:58.981Z,12
2016-11-15T06:46:31.305Z,12
2016-11-15T06:47:03.635Z,12
2016-11-15T06:47:35.969Z,12
2016-11-15T06:48:08.283Z,12
2016-11-15T06:48:40.603Z,12
2016-11-15T06:49:12.964Z,12
2016-11-15T06:49:45.298Z,16
2016-11-15T06:50:17.629Z,16
2016-11-15T06:50:50.044Z,16
2016-11-15T06:51:22.365Z,16
2016-11-15T06:51:54.685Z,20
2016-11-15T06:52:27.025Z,24
2016-11-15T06:52:59.335Z,20
2016-11-15T06:53:31.664Z,20
2016-11-15T06:54:03.980Z,20
2016-11-15T06:54:36.312Z,20
2016-11-15T06:55:08.648Z,24
2016-11-15T06:55:40.969Z,24
2016-11-15T06:56:13.322Z,28
2016-11-15T06:56:46.276Z,32
2016-11-15T06:57:18.613Z,28
2016-11-15T06:57:50.967Z,28
2016-11-15T06:58:23.288Z,28
2016-11-15T06:58:55.613Z,28
2016-11-15T06:59:27.974Z,24
2016-11-15T07:00:00.291Z,32
2016-11-15T07:00:32.618Z,32
2016-11-15T07:01:04.944Z,40
2016-11-15T07:01:37.654Z,40
2016-11-15T07:02:09.993Z,36
2016-11-15T07:02:42.298Z,36
2016-11-15T07:03:14.599Z,40
2016-11-15T07:03:46.911Z,40
2016-11-15T07:04:19.256Z,36
2016-11-15T07:04:51.608Z,36
2016-11-15T07:05:23.924Z,36
2016-11-15T07:05:56.243Z,36
2016-11-15T07:06:28.595Z,36
2016-11-15T07:07:00.926Z,36
2016-11-15T07:07:33.762Z,40
2016-11-15T07:08:07.415Z,40
2016-11-15T07:08:39.972Z,36
2016-11-15T07:09:12.330Z,36
2016-11-15T07:09:44.664Z,36
2016-11-15T07:10:17.020Z,44
2016-11-15T07:10:51.428Z,44
2016-11-15T07:11:29.291Z,44
2016-11-15T07:12:02.222Z,44
2016-11-15T07:12:36.364Z,52
2016-11-15T07:13:09.339Z,52
2016-11-15T07:13:41.655Z,52
2016-11-15T07:14:14.352Z,48
2016-11-15T07:14:46.820Z,52
2016-11-15T07:15:24.310Z,52
2016-11-15T07:16:01.889Z,52
2016-11-15T07:16:34.695Z,60
2016-11-15T07:17:11.865Z,56
2016-11-15T07:17:46.378Z,60
2016-11-15T07:18:20.881Z,68
2016-11-15T07:18:54.583Z,68
2016-11-15T07:19:30.873Z,60
2016-11-15T07:20:06.348Z,60
2016-11-15T07:20:40.980Z,68
2016-11-15T07:21:17.880Z,80
2016-11-15T07:21:51.892Z,76
2016-11-15T07:22:26.841Z,72
2016-11-15T07:22:59.741Z,76
2016-11-15T07:23:32.979Z,72
2016-11-15T07:24:05.343Z,68
2016-11-15T07:24:38.423Z,60
2016-11-15T07:25:10.726Z,64
2016-11-15T07:25:43.039Z,68
2016-11-15T07:26:15.358Z,68
2016-11-15T07:26:47.686Z,72
2016-11-15T07:27:20.891Z,72
2016-11-15T07:27:55.366Z,72
2016-11-15T07:28:29.886Z,80
2016-11-15T07:29:11.889Z,84
2016-11-15T07:29:51.999Z,76
2016-11-15T07:30:29.235Z,68
2016-11-15T07:31:04.957Z,80
2016-11-15T07:31:41.082Z,80
2016-11-15T07:38:25.900Z,104
2016-11-15T07:38:59.066Z,100
2016-11-15T07:39:39.432Z,104
2016-11-15T07:40:14.261Z,104
2016-11-15T07:40:48.898Z,112
2016-11-15T07:41:24.907Z,124
2016-11-15T07:41:57.439Z,116
2016-11-15T07:42:29.773Z,120
2016-11-15T07:43:02.131Z,128
2016-11-15T07:43:39.893Z,128
2016-11-15T07:44:16.054Z,124
2016-11-15T07:44:55.027Z,124
2016-11-15T07:45:30.417Z,124
2016-11-15T07:46:08.389Z,128
2016-11-15T07:46:41.892Z,132
2016-11-15T07:47:16.115Z,124
2016-11-15T07:47:49.456Z,120
2016-11-15T07:48:23.575Z,124
2016-11-15T07:49:03.911Z,112
2016-11-15T07:49:41.901Z,108
2016-11-15T07:50:20.400Z,120
2016-11-15T07:50:56.899Z,104
2016-11-15T07:51:31.315Z,108
2016-11-15T07:52:04.548Z,108
2016-11-15T07:52:38.426Z,116
2016-11-15T07:53:13.366Z,128
2016-11-15T07:53:46.904Z,132
2016-11-15T07:54:20.988Z,124
2016-11-15T07:54:55.288Z,120
2016-11-15T07:55:32.045Z,124
2016-11-15T07:56:06.009Z,120
2016-11-15T07:56:41.369Z,128
2016-11-15T07:57:15.831Z,132
2016-11-15T07:57:49.417Z,124
2016-11-15T07:58:22.542Z,144
2016-11-15T07:58:55.679Z,160
2016-11-15T07:59:28.896Z,172
2016-11-15T08:00:01.991Z,176
2016-11-15T08:00:36.396Z,176
2016-11-15T08:01:11.732Z,188
2016-11-15T08:01:45.036Z,188
2016-11-15T08:02:18.413Z,184
2016-11-15T08:02:52.369Z,184
2016-11-15T08:03:25.929Z,184
2016-11-15T08:03:59.570Z,184
2016-11-15T08:04:33.664Z,180